createdAt,value
2023-04-11T04:02:58.530Z,100440.72
2023-04-11T04:06:02.397Z,100439.72
2023-04-11T04:09:05.355Z,100439.06
2023-04-11T04:12:10.383Z,100435.38
2023-04-11T04:15:15.025Z,100435.25
2023-04-11T04:18:18.457Z,100439.31
2023-04-11T04:21:21.413Z,100431.03
2023-04-11T04:24:26.283Z,100430.75
2023-04-11T04:27:29.787Z,100435.53
2023-04-11T04:30:38.157Z,100437.34
2023-04-11T04:33:46.595Z,100433.69
2023-04-11T04:36:49.947Z,100432.59
2023-04-11T04:39:55.299Z,100444.37
2023-04-11T04:42:59.532Z,100443.69
2023-04-11T04:46:05.451Z,100447.19
2023-04-11T04:49:09.308Z,100439.16
2023-04-11T04:52:15.979Z,100431.28
2023-04-11T04:55:18.915Z,100438.59
2023-04-11T04:58:24.491Z,100431.66
2023-04-11T05:01:27.679Z,100431.50
2023-04-11T05:04:34.385Z,100427.50
2023-04-11T05:07:38.200Z,100428.44
2023-04-11T05:10:41.357Z,100429.56
2023-04-11T05:13:46.332Z,100423.87
2023-04-11T05:16:49.286Z,100420.84
2023-04-11T05:19:52.555Z,100410.44
2023-04-11T05:22:55.565Z,100404.81
2023-04-11T05:25:59.041Z,100407.56
2023-04-11T05:29:02.064Z,100410.94
2023-04-11T05:32:05.700Z,100407.56
2023-04-11T05:35:09.232Z,100397.59
2023-04-11T05:38:13.876Z,100402.50
2023-04-11T05:41:16.774Z,100399.13
2023-04-11T05:44:19.915Z,100399.13
2023-04-11T05:47:23.693Z,100398.12
2023-04-11T05:50:26.636Z,100400.31
2023-04-11T05:53:29.608Z,100396.84
2023-04-11T05:56:32.948Z,100389.63
2023-04-11T05:59:36.194Z,100382.44
2023-04-11T06:02:40.808Z,100379.56
2023-04-11T06:05:43.978Z,100381.22
2023-04-11T06:08:46.570Z,100376.81
2023-04-11T06:11:49.459Z,100369.75
2023-04-11T06:14:52.035Z,100366.81
2023-04-11T06:17:55.141Z,100367.56
2023-04-11T06:20:57.861Z,100362.50
2023-04-11T06:24:09.286Z,100366.22
2023-04-11T06:27:11.978Z,100364.41
2023-04-11T06:30:15.314Z,100362.03
2023-04-11T06:33:18.646Z,100362.50
2023-04-11T06:36:21.777Z,100351.34
2023-04-11T06:39:25.188Z,100351.59
2023-04-11T06:42:28.176Z,100350.22
2023-04-11T06:45:31.111Z,100359.44
2023-04-11T06:48:34.427Z,100353.34
2023-04-11T06:51:37.940Z,100347.19
2023-04-11T06:54:41.130Z,100350.50
2023-04-11T06:57:44.239Z,100337.81
2023-04-11T07:00:47.213Z,100337.19
2023-04-11T07:03:50.347Z,100334.88
2023-04-11T07:06:53.446Z,100346.44
2023-04-11T07:09:56.114Z,100339.19
2023-04-11T07:12:59.009Z,100341.34
2023-04-11T07:16:01.747Z,100344.50
2023-04-11T07:19:04.696Z,100324.63
2023-04-11T07:22:07.746Z,100321.38
2023-04-11T07:25:10.818Z,100314.50
2023-04-11T07:28:13.557Z,100321.03
2023-04-11T07:31:19.712Z,100321.75
2023-04-11T07:34:22.526Z,100321.69
2023-04-11T07:37:27.012Z,100318.31
2023-04-11T07:40:31.336Z,100321.19
2023-04-11T07:43:34.205Z,100315.19
2023-04-11T07:46:36.887Z,100317.56
2023-04-11T07:49:39.791Z,100322.25
2023-04-11T07:52:42.412Z,100321.63
2023-04-11T07:55:45.446Z,100313.16
2023-04-11T07:58:48.102Z,100298.00
2023-04-11T08:02:01.417Z,100305.28
2023-04-11T08:05:05.063Z,100295.28
2023-04-11T08:08:07.967Z,100288.59
2023-04-11T08:11:10.948Z,100278.78
2023-04-11T08:14:13.651Z,100286.72
2023-04-11T08:17:27.227Z,100289.44
2023-04-11T08:20:31.363Z,100287.56
2023-04-11T08:23:34.211Z,100275.69
2023-04-11T08:26:37.189Z,100276.94
2023-04-11T08:29:40.626Z,100264.63
2023-04-11T08:32:43.397Z,100265.84
2023-04-11T08:35:46.310Z,100253.38
2023-04-11T08:38:48.940Z,100242.31
2023-04-11T08:41:52.751Z,100240.22
2023-04-11T08:44:57.241Z,100236.22
2023-04-11T08:48:00.257Z,100221.53
2023-04-11T08:51:02.993Z,100209.78
2023-04-11T08:54:07.169Z,100214.09
2023-04-11T08:57:09.902Z,100211.78
2023-04-11T09:00:16.063Z,100210.09
2023-04-11T09:03:19.130Z,100197.66
2023-04-11T09:06:22.472Z,100184.13
2023-04-11T09:09:31.025Z,100189.37
2023-04-11T09:12:36.244Z,100190.88
2023-04-11T09:15:38.995Z,100198.81
2023-04-11T09:18:47.089Z,100196.22
2023-04-11T09:21:50.595Z,100199.16
2023-04-11T09:25:03.801Z,100182.25
2023-04-11T09:28:09.340Z,100179.66
2023-04-11T09:31:13.922Z,100174.75
2023-04-11T09:34:23.736Z,100166.88
2023-04-11T09:37:27.099Z,100157.72
2023-04-11T09:40:31.953Z,100153.47
2023-04-11T09:43:54.630Z,100153.72
2023-04-11T09:46:59.354Z,100153.53
2023-04-11T09:50:03.522Z,100150.94
2023-04-11T09:53:07.006Z,100151.56
2023-04-11T09:56:10.780Z,100140.19
2023-04-11T09:59:15.593Z,100149.56
2023-04-11T10:02:18.588Z,100138.59
2023-04-11T10:05:27.072Z,100137.19
2023-04-11T10:08:32.862Z,100127.59
2023-04-11T10:11:36.658Z,100123.06
2023-04-11T10:14:39.705Z,100116.84
2023-04-11T10:17:43.254Z,100119.41
2023-04-11T10:20:50.327Z,100124.03
2023-04-11T10:24:17.128Z,100119.84
2023-04-11T10:27:47.927Z,100112.69
2023-04-11T10:31:13.424Z,100098.53
2023-04-11T10:34:16.218Z,100092.59
2023-04-11T10:37:33.766Z,100074.78
2023-04-11T10:40:36.617Z,100072.94
2023-04-11T10:43:39.873Z,100069.12
2023-04-11T10:46:58.787Z,100060.25
2023-04-11T10:50:01.864Z,100062.38
2023-04-11T10:53:08.927Z,100051.94
2023-04-11T10:56:11.911Z,100044.72
2023-04-11T10:59:36.348Z,100052.44
2023-04-11T11:02:43.165Z,100043.53
2023-04-11T11:05:46.768Z,100035.56
2023-04-11T11:08:50.112Z,100032.03
2023-04-11T11:12:06.967Z,100023.41
2023-04-11T11:15:13.492Z,100027.47
2023-04-11T11:18:16.953Z,100013.31
2023-04-11T11:21:27.653Z,100016.50
2023-04-11T11:24:31.218Z,100006.81
2023-04-11T11:27:34.739Z,99998.38
2023-04-11T11:30:55.106Z,99998.41
2023-04-11T11:34:18.302Z,99991.53
2023-04-11T11:37:21.711Z,99985.00
2023-04-11T11:40:25.096Z,99978.78
2023-04-11T11:43:29.088Z,99976.41
2023-04-11T11:46:35.803Z,99984.78
2023-04-11T11:49:51.749Z,99979.25
2023-04-11T11:52:54.950Z,99981.69
2023-04-11T11:55:57.744Z,99978.59
2023-04-11T11:59:01.378Z,99967.81
2023-04-11T12:02:04.416Z,99960.06
2023-04-11T12:05:10.873Z,99961.25
2023-04-11T12:08:14.301Z,99960.81
2023-04-11T12:11:18.586Z,99956.59
2023-04-11T12:14:25.178Z,99956.81
2023-04-11T12:17:36.280Z,99956.97
2023-04-11T12:20:41.494Z,99960.09
2023-04-11T12:23:44.536Z,99953.34
2023-04-11T12:27:05.764Z,99959.94
2023-04-11T12:30:15.079Z,99958.38
2023-04-11T12:33:18.302Z,99955.75
2023-04-11T12:36:22.817Z,99957.66
2023-04-11T12:39:26.080Z,99944.66
2023-04-11T12:42:29.246Z,99947.97
2023-04-11T12:45:33.338Z,99931.22
2023-04-11T12:48:36.577Z,99930.03
2023-04-11T12:51:40.047Z,99923.47
2023-04-11T12:54:43.456Z,99932.19
2023-04-11T12:57:46.308Z,99925.78
2023-04-11T13:00:49.306Z,99920.78
2023-04-11T13:03:53.455Z,99913.59
2023-04-11T13:07:01.107Z,99914.31
2023-04-11T13:10:04.417Z,99901.66
2023-04-11T13:13:17.437Z,99904.03
2023-04-11T13:16:21.868Z,99895.59
2023-04-11T13:19:24.997Z,99886.44
2023-04-11T13:22:27.851Z,99875.47
2023-04-11T13:25:30.844Z,99887.19
2023-04-11T13:28:38.974Z,99878.94
2023-04-11T13:31:41.946Z,99873.97
2023-04-11T13:34:44.714Z,99877.13
2023-04-11T13:37:49.854Z,99878.16
2023-04-11T13:44:54.682Z,99864.63
2023-04-11T13:48:00.660Z,99858.69
2023-04-11T13:51:04.288Z,99851.00
2023-04-11T13:54:07.270Z,99850.00
2023-04-11T13:57:10.133Z,99862.59
2023-04-11T14:00:14.604Z,99852.66
2023-04-11T14:03:18.009Z,99845.72
2023-04-11T14:06:20.888Z,99847.47
2023-04-11T14:09:23.977Z,99851.56
2023-04-11T14:12:27.192Z,99845.00
2023-04-11T14:15:31.642Z,99843.03
2023-04-11T14:18:34.317Z,99846.00
2023-04-11T14:21:37.273Z,99850.19
2023-04-11T14:24:41.974Z,99852.34
2023-04-11T14:27:45.332Z,99852.94
2023-04-11T14:30:48.652Z,99863.75
2023-04-11T14:33:53.782Z,99864.59
2023-04-11T14:36:56.451Z,99874.62
2023-04-11T14:39:59.351Z,99881.84
2023-04-11T14:43:13.751Z,99888.06
2023-04-11T14:46:17.014Z,99894.81
2023-04-11T14:49:19.643Z,99893.69
2023-04-11T14:52:23.360Z,99893.25
2023-04-11T14:55:26.560Z,99901.37
2023-04-11T14:58:29.781Z,99901.31
2023-04-11T15:01:33.091Z,99899.88
2023-04-11T15:04:37.976Z,99910.31
2023-04-11T15:07:40.928Z,99909.16
2023-04-11T15:10:44.326Z,99913.00
2023-04-11T15:13:48.315Z,99914.97
2023-04-11T15:16:52.040Z,99913.50
2023-04-11T15:19:54.963Z,99919.22
2023-04-11T15:22:58.379Z,99924.47
2023-04-11T15:26:04.323Z,99922.00
2023-04-11T15:29:13.539Z,99920.34
2023-04-11T15:32:17.230Z,99929.00
2023-04-11T15:35:20.900Z,99938.59
2023-04-11T15:38:24.193Z,99945.38
2023-04-11T15:41:27.790Z,99943.62
2023-04-11T15:44:30.833Z,99945.28
2023-04-11T15:47:33.997Z,99940.41
2023-04-11T15:50:37.023Z,99947.63
